
Distance (Route):
Temperature : 0°C
Humidity : 0%
Pressure : 0hPa| Receiver | Frames | First received | Last received |
|---|---|---|---|
| WB7NNF | 316 | 2026-09-05 17:29:25 | 2026-09-05 19:21:23 |
| Receiver | Date | Latitude | Longitude | Direction | Speed | Altitude | Climb | Temperature | Humidity | Pressure | Voltage | Killtimer | Uptime | BKT | XDATA |
|---|---|---|---|---|---|---|---|---|---|---|---|---|---|---|---|
| WB7NNF | 2026-09-05 19:21:23 | 48.42641 | -117.42856 | 24° | 166km/h | 9113m | -11.2m/s | 0°C | 0% | 0hPa | 0V | 00:00:00 | 00:00:00 | 00:00:00 | |
| WB7NNF | 2026-09-05 19:20:29 | 48.40814 | -117.43931 | 16° | 128km/h | 9779m | -13.4m/s | -45.0°C | 0% | 0hPa | 0V | 00:00:00 | 00:00:00 | 00:00:00 | |
| WB7NNF | 2026-09-05 19:19:57 | 48.39875 | -117.44365 | 19° | 113km/h | 10249m | -15.8m/s | -42.8°C | 0% | 0hPa | 0V | 00:00:00 | 00:00:00 | 00:00:00 | |
| WB7NNF | 2026-09-05 19:19:37 | 48.39305 | -117.44604 | 15° | 102km/h | 10500m | -11.8m/s | -43.2°C | 0% | 0hPa | 0V | 00:00:00 | 00:00:00 | 00:00:00 | |
| WB7NNF | 2026-09-05 19:19:16 | 48.38761 | -117.44762 | 13° | 108km/h | 10766m | -13.2m/s | -42.5°C | 0% | 0hPa | 0V | 00:00:00 | 00:00:00 | 00:00:00 | |
| WB7NNF | 2026-09-05 19:18:54 | 48.38209 | -117.45069 | 27° | 95km/h | 11053m | -13.9m/s | -42.3°C | 0% | 0hPa | 0V | 00:00:00 | 00:00:00 | 00:00:00 | |
| WB7NNF | 2026-09-05 19:18:33 | 48.37822 | -117.45322 | 17° | 77km/h | 11321m | -15.3m/s | -42.1°C | 0% | 0hPa | 0V | 00:00:00 | 00:00:00 | 00:00:00 | |
| WB7NNF | 2026-09-05 19:18:13 | 48.37446 | -117.45444 | 11° | 77km/h | 11617m | -11.7m/s | -42.7°C | 0% | 0hPa | 0V | 00:00:00 | 00:00:00 | 00:00:00 | |
| WB7NNF | 2026-09-05 19:17:52 | 48.37056 | -117.45572 | 11° | 73km/h | 11889m | -14.5m/s | -42.9°C | 0% | 0hPa | 0V | 00:00:00 | 00:00:00 | 00:00:00 | |
| WB7NNF | 2026-09-05 19:17:32 | 48.36705 | -117.45651 | 15° | 64km/h | 12199m | -15.8m/s | -42.6°C | 0% | 0hPa | 0V | 00:00:00 | 00:00:00 | 00:00:00 | |
| WB7NNF | 2026-09-05 19:17:11 | 48.36372 | -117.45812 | 21° | 69km/h | 12543m | -15.8m/s | -43.8°C | 0% | 0hPa | 0V | 00:00:00 | 00:00:00 | 00:00:00 | |
| WB7NNF | 2026-09-05 19:16:50 | 48.36016 | -117.45947 | 11° | 68km/h | 12851m | -14.8m/s | -44.6°C | 0% | 0hPa | 0V | 00:00:00 | 00:00:00 | 00:00:00 | |
| WB7NNF | 2026-09-05 19:16:30 | 48.35664 | -117.46062 | 14° | 78km/h | 13178m | -16.6m/s | -46.1°C | 0% | 0hPa | 0V | 00:00:00 | 00:00:00 | 00:00:00 | |
| WB7NNF | 2026-09-05 19:16:09 | 48.35235 | -117.46237 | 17° | 89km/h | 13484m | -14.4m/s | -47.3°C | 0% | 0hPa | 0V | 00:00:00 | 00:00:00 | 00:00:00 | |
| WB7NNF | 2026-09-05 19:15:49 | 48.34843 | -117.46410 | 15° | 64km/h | 13775m | -13.4m/s | -48.6°C | 0% | 0hPa | 0V | 00:00:00 | 00:00:00 | 00:00:00 | |
| WB7NNF | 2026-09-05 19:15:28 | 48.34563 | -117.46441 | 355° | 51km/h | 14051m | -13.0m/s | -47.6°C | 0% | 0hPa | 0V | 00:00:00 | 00:00:00 | 00:00:00 | |
| WB7NNF | 2026-09-05 19:15:08 | 48.34326 | -117.46314 | 336° | 57km/h | 14367m | -18.4m/s | -48.3°C | 0% | 0hPa | 0V | 00:00:00 | 00:00:00 | 00:00:00 | |
| WB7NNF | 2026-09-05 19:14:47 | 48.33992 | -117.46139 | 350° | 82km/h | 14736m | -18.4m/s | -49.5°C | 0% | 0hPa | 0V | 00:00:00 | 00:00:00 | 00:00:00 | |
| WB7NNF | 2026-09-05 19:14:27 | 48.33536 | -117.46089 | 7° | 84km/h | 15082m | -14.9m/s | -50.5°C | 0% | 0hPa | 0V | 00:00:00 | 00:00:00 | 00:00:00 | |
| WB7NNF | 2026-09-05 19:14:06 | 48.33141 | -117.46255 | 28° | 69km/h | 15401m | -16.5m/s | -51.0°C | 0% | 0hPa | 0V | 00:00:00 | 00:00:00 | 00:00:00 | |
| WB7NNF | 2026-09-05 19:13:46 | 48.32884 | -117.46459 | 15° | 49km/h | 15728m | -14.3m/s | -51.3°C | 0% | 0hPa | 0V | 00:00:00 | 00:00:00 | 00:00:00 | |
| WB7NNF | 2026-09-05 19:13:25 | 48.32643 | -117.46614 | 31° | 38km/h | 16022m | -16.4m/s | -50.4°C | 0% | 0hPa | 0V | 00:00:00 | 00:00:00 | 00:00:00 | |
| WB7NNF | 2026-09-05 19:13:05 | 48.32418 | -117.46724 | 16° | 46km/h | 16365m | -17.1m/s | -49.7°C | 0% | 0hPa | 0V | 00:00:00 | 00:00:00 | 00:00:00 | |
| WB7NNF | 2026-09-05 19:12:44 | 48.32240 | -117.46849 | 21° | 38km/h | 16676m | -18.3m/s | -49.9°C | 0% | 0hPa | 0V | 00:00:00 | 00:00:00 | 00:00:00 | |
| WB7NNF | 2026-09-05 19:12:24 | 48.32112 | -117.46882 | 354° | 20km/h | 17107m | -15.0m/s | -52.7°C | 0% | 0hPa | 0V | 00:00:00 | 00:00:00 | 00:00:00 | |
| WB7NNF | 2026-09-05 19:12:03 | 48.31962 | -117.46886 | 12° | 33km/h | 17467m | -18.4m/s | -51.4°C | 0% | 0hPa | 0V | 00:00:00 | 00:00:00 | 00:00:00 | |
| WB7NNF | 2026-09-05 19:11:42 | 48.31834 | -117.46924 | 345° | 16km/h | 17807m | -16.1m/s | -51.6°C | 0% | 0hPa | 0V | 00:00:00 | 00:00:00 | 00:00:00 | |
| WB7NNF | 2026-09-05 19:11:22 | 48.31733 | -117.46798 | 328° | 33km/h | 18147m | -13.1m/s | -53.1°C | 0% | 0hPa | 0V | 00:00:00 | 00:00:00 | 00:00:00 | |
| WB7NNF | 2026-09-05 19:11:01 | 48.31556 | -117.46669 | 339° | 42km/h | 18445m | -15.3m/s | -55.1°C | 0% | 0hPa | 0V | 00:00:00 | 00:00:00 | 00:00:00 | |
| WB7NNF | 2026-09-05 19:10:41 | 48.31340 | -117.46620 | 1° | 27km/h | 18764m | -16.1m/s | -53.0°C | 0% | 0hPa | 0V | 00:00:00 | 00:00:00 | 00:00:00 | |
| WB7NNF | 2026-09-05 19:10:20 | 48.31214 | -117.46594 | 349° | 27km/h | 19119m | -17.9m/s | -53.1°C | 0% | 0hPa | 0V | 00:00:00 | 00:00:00 | 00:00:00 | |
| WB7NNF | 2026-09-05 19:10:00 | 48.31097 | -117.46558 | 354° | 15km/h | 19478m | -17.2m/s | -52.7°C | 0% | 0hPa | 0V | 00:00:00 | 00:00:00 | 00:00:00 | |
| WB7NNF | 2026-09-05 19:09:39 | 48.31041 | -117.46516 | 296° | 13km/h | 19853m | -19.3m/s | -52.9°C | 0% | 0hPa | 0V | 00:00:00 | 00:00:00 | 00:00:00 | |
| WB7NNF | 2026-09-05 19:09:19 | 48.31017 | -117.46375 | 292° | 26km/h | 20257m | -17.4m/s | -54.2°C | 0% | 0hPa | 0V | 00:00:00 | 00:00:00 | 00:00:00 | |
| WB7NNF | 2026-09-05 19:08:58 | 48.30951 | -117.46308 | 328° | 20km/h | 20635m | -18.1m/s | -54.9°C | 0% | 0hPa | 0V | 00:00:00 | 00:00:00 | 00:00:00 | |
| WB7NNF | 2026-09-05 19:08:38 | 48.30816 | -117.46232 | 6° | 29km/h | 21032m | -18.0m/s | -53.9°C | 0% | 0hPa | 0V | 00:00:00 | 00:00:00 | 00:00:00 | |
| WB7NNF | 2026-09-05 19:08:17 | 48.30808 | -117.46317 | 165° | 18km/h | 21417m | -18.4m/s | -53.8°C | 0% | 0hPa | 0V | 00:00:00 | 00:00:00 | 00:00:00 | |
| WB7NNF | 2026-09-05 19:07:57 | 48.30866 | -117.46195 | 269° | 33km/h | 21820m | -21.9m/s | -53.4°C | 0% | 0hPa | 0V | 00:00:00 | 00:00:00 | 00:00:00 | |
| WB7NNF | 2026-09-05 19:07:36 | 48.30754 | -117.45974 | 337° | 38km/h | 22323m | -21.1m/s | -54.1°C | 0% | 0hPa | 0V | 00:00:00 | 00:00:00 | 00:00:00 | |
| WB7NNF | 2026-09-05 19:07:15 | 48.30677 | -117.45956 | 163° | 5km/h | 22709m | -20.8m/s | -53.6°C | 0% | 0hPa | 0V | 00:00:00 | 00:00:00 | 00:00:00 | |
| WB7NNF | 2026-09-05 19:06:55 | 48.30649 | -117.45963 | 121° | 4km/h | 23168m | -19.8m/s | -53.0°C | 0% | 0hPa | 0V | 00:00:00 | 00:00:00 | 00:00:00 | |
| WB7NNF | 2026-09-05 19:06:34 | 48.30655 | -117.45898 | 289° | 20km/h | 23614m | -21.5m/s | -53.8°C | 0% | 0hPa | 0V | 00:00:00 | 00:00:00 | 00:00:00 | |
| WB7NNF | 2026-09-05 19:06:14 | 48.30610 | -117.45819 | 283° | 15km/h | 24188m | -27.6m/s | -51.4°C | 0% | 0hPa | 0V | 00:00:00 | 00:00:00 | 00:00:00 | |
| WB7NNF | 2026-09-05 19:05:53 | 48.30629 | -117.45742 | 273° | 16km/h | 24703m | -29.7m/s | -52.2°C | 0% | 0hPa | 0V | 00:00:00 | 00:00:00 | 00:00:00 | |
| WB7NNF | 2026-09-05 19:05:33 | 48.30612 | -117.45634 | 292° | 16km/h | 25251m | -24.8m/s | -52.7°C | 0% | 0hPa | 0V | 00:00:00 | 00:00:00 | 00:00:00 | |
| WB7NNF | 2026-09-05 19:05:12 | 48.30539 | -117.45538 | 345° | 20km/h | 25706m | -22.0m/s | -51.4°C | 0% | 0hPa | 0V | 00:00:00 | 00:00:00 | 00:00:00 | |
| WB7NNF | 2026-09-05 19:04:52 | 48.30464 | -117.45563 | 177° | 7km/h | 26207m | -25.0m/s | -49.0°C | 0% | 0hPa | 0V | 00:00:00 | 00:00:00 | 00:00:00 | |
| WB7NNF | 2026-09-05 19:04:31 | 48.30499 | -117.45526 | 297° | 11km/h | 26700m | -20.8m/s | -50.5°C | 0% | 0hPa | 0V | 00:00:00 | 00:00:00 | 00:00:00 | |
| WB7NNF | 2026-09-05 19:04:11 | 48.30459 | -117.45485 | 50° | 9km/h | 27196m | -23.2m/s | -50.2°C | 0% | 0hPa | 0V | 00:00:00 | 00:00:00 | 00:00:00 | |
| WB7NNF | 2026-09-05 19:03:50 | 48.30487 | -117.45487 | 236° | 13km/h | 27716m | -25.2m/s | -49.0°C | 0% | 0hPa | 0V | 00:00:00 | 00:00:00 | 00:00:00 | |
| WB7NNF | 2026-09-05 19:03:30 | 48.30550 | -117.45379 | 184° | 27km/h | 28293m | -27.4m/s | -48.6°C | 0% | 0hPa | 0V | 00:00:00 | 00:00:00 | 00:00:00 | |
| WB7NNF | 2026-09-05 19:03:09 | 48.30603 | -117.45294 | 259° | 18km/h | 28854m | -26.8m/s | -47.9°C | 0% | 0hPa | 0V | 00:00:00 | 00:00:00 | 00:00:00 | |
| WB7NNF | 2026-09-05 19:02:49 | 48.30583 | -117.45185 | 282° | 11km/h | 29450m | -25.4m/s | -47.2°C | 0% | 0hPa | 0V | 00:00:00 | 00:00:00 | 00:00:00 | |
| WB7NNF | 2026-09-05 19:02:28 | 48.30520 | -117.45049 | 336° | 18km/h | 30034m | -30.4m/s | -45.6°C | 0% | 0hPa | 0V | 00:00:00 | 00:00:00 | 00:00:00 | |
| WB7NNF | 2026-09-05 19:02:08 | 48.30432 | -117.45029 | 354° | 15km/h | 30742m | -31.7m/s | -42.6°C | 0% | 0hPa | 0V | 00:00:00 | 00:00:00 | 00:00:00 | |
| WB7NNF | 2026-09-05 19:01:47 | 48.30391 | -117.45073 | 67° | 9km/h | 31454m | -38.5m/s | -41.8°C | 0% | 0hPa | 0V | 00:00:00 | 00:00:00 | 00:00:00 | |
| WB7NNF | 2026-09-05 19:01:26 | 48.30380 | -117.45206 | 123° | 20km/h | 32113m | -27.2m/s | -41.8°C | 0% | 0hPa | 0V | 00:00:00 | 00:00:00 | 00:00:00 | |
| WB7NNF | 2026-09-05 19:01:06 | 48.30419 | -117.45260 | 164° | 27km/h | 32749m | -35.5m/s | -41.0°C | 0% | 0hPa | 0V | 00:00:00 | 00:00:00 | 00:00:00 | |
| WB7NNF | 2026-09-05 19:00:45 | 48.30450 | -117.45275 | 202° | 20km/h | 33408m | -35.9m/s | -38.5°C | 0% | 0hPa | 0V | 00:00:00 | 00:00:00 | 00:00:00 | |
| WB7NNF | 2026-09-05 19:00:25 | 48.30424 | -117.45260 | 26° | 55km/h | 33580m | 2.1m/s | -37.9°C | 0% | 0hPa | 0V | 00:00:00 | 00:00:00 | 00:00:00 | |
| WB7NNF | 2026-09-05 19:00:04 | 48.30421 | -117.45306 | 196° | 49km/h | 33455m | 8.8m/s | -39.6°C | 0% | 0hPa | 0V | 00:00:00 | 00:00:00 | 00:00:00 | |
| WB7NNF | 2026-09-05 18:59:44 | 48.30431 | -117.45298 | 36° | 40km/h | 33323m | 11.8m/s | -40.0°C | 0% | 0hPa | 0V | 00:00:00 | 00:00:00 | 00:00:00 | |
| WB7NNF | 2026-09-05 18:59:23 | 48.30411 | -117.45332 | 167° | 38km/h | 33199m | 3.0m/s | -40.4°C | 0% | 0hPa | 0V | 00:00:00 | 00:00:00 | 00:00:00 | |
| WB7NNF | 2026-09-05 18:59:03 | 48.30377 | -117.45292 | 23° | 35km/h | 33063m | 3.3m/s | -41.1°C | 0% | 0hPa | 0V | 00:00:00 | 00:00:00 | 00:00:00 | |
| WB7NNF | 2026-09-05 18:58:40 | 48.30430 | -117.45402 | 159° | 35km/h | 32926m | 5.7m/s | -41.2°C | 0% | 0hPa | 0V | 00:00:00 | 00:00:00 | 00:00:00 | |
| WB7NNF | 2026-09-05 18:58:20 | 48.30545 | -117.45434 | 246° | 55km/h | 32793m | 6.7m/s | -41.2°C | 0% | 0hPa | 0V | 00:00:00 | 00:00:00 | 00:00:00 | |
| WB7NNF | 2026-09-05 18:57:59 | 48.30651 | -117.45454 | 99° | 66km/h | 32674m | 11.1m/s | -41.2°C | 0% | 0hPa | 0V | 00:00:00 | 00:00:00 | 00:00:00 | |
| WB7NNF | 2026-09-05 18:57:39 | 48.30716 | -117.45495 | 261° | 27km/h | 32551m | 8.7m/s | -41.2°C | 0% | 0hPa | 0V | 00:00:00 | 00:00:00 | 00:00:00 | |
| WB7NNF | 2026-09-05 18:57:17 | 48.30697 | -117.45559 | 131° | 42km/h | 32420m | 9.2m/s | -41.3°C | 0% | 0hPa | 0V | 00:00:00 | 00:00:00 | 00:00:00 | |
| WB7NNF | 2026-09-05 18:56:56 | 48.30682 | -117.45576 | 333° | 24km/h | 32296m | 1.3m/s | -41.9°C | 0% | 0hPa | 0V | 00:00:00 | 00:00:00 | 00:00:00 | |
| WB7NNF | 2026-09-05 18:56:35 | 48.30700 | -117.45728 | 155° | 35km/h | 32159m | 7.2m/s | -42.0°C | 0% | 0hPa | 0V | 00:00:00 | 00:00:00 | 00:00:00 | |
| WB7NNF | 2026-09-05 18:56:13 | 48.30743 | -117.45856 | 23° | 42km/h | 32031m | 1.8m/s | -42.5°C | 0% | 0hPa | 0V | 00:00:00 | 00:00:00 | 00:00:00 | |
| WB7NNF | 2026-09-05 18:55:50 | 48.30677 | -117.46072 | 86° | 53km/h | 31869m | 9.5m/s | -42.0°C | 0% | 0hPa | 0V | 00:00:00 | 00:00:00 | 00:00:00 | |
| WB7NNF | 2026-09-05 18:55:30 | 48.30623 | -117.46190 | 192° | 27km/h | 31748m | 9.3m/s | -41.6°C | 0% | 0hPa | 0V | 00:00:00 | 00:00:00 | 00:00:00 | |
| WB7NNF | 2026-09-05 18:55:09 | 48.30561 | -117.46254 | 26° | 55km/h | 31614m | 6.8m/s | -41.8°C | 0% | 0hPa | 0V | 00:00:00 | 00:00:00 | 00:00:00 | |
| WB7NNF | 2026-09-05 18:54:49 | 48.30507 | -117.46329 | 105° | 15km/h | 31482m | 8.7m/s | -41.8°C | 0% | 0hPa | 0V | 00:00:00 | 00:00:00 | 00:00:00 | |
| WB7NNF | 2026-09-05 18:54:28 | 48.30484 | -117.46335 | 330° | 16km/h | 31359m | 3.7m/s | -41.6°C | 0% | 0hPa | 0V | 00:00:00 | 00:00:00 | 00:00:00 | |
| WB7NNF | 2026-09-05 18:54:08 | 48.30443 | -117.46399 | 86° | 16km/h | 31221m | 6.8m/s | -41.8°C | 0% | 0hPa | 0V | 00:00:00 | 00:00:00 | 00:00:00 | |
| WB7NNF | 2026-09-05 18:53:47 | 48.30399 | -117.46384 | 319° | 15km/h | 31097m | 3.7m/s | -42.0°C | 0% | 0hPa | 0V | 00:00:00 | 00:00:00 | 00:00:00 | |
| WB7NNF | 2026-09-05 18:53:27 | 48.30323 | -117.46465 | 54° | 35km/h | 30971m | 2.4m/s | -41.9°C | 0% | 0hPa | 0V | 00:00:00 | 00:00:00 | 00:00:00 | |
| WB7NNF | 2026-09-05 18:53:06 | 48.30271 | -117.46483 | 94° | 5km/h | 30846m | 4.7m/s | -41.8°C | 0% | 0hPa | 0V | 00:00:00 | 00:00:00 | 00:00:00 | |
| WB7NNF | 2026-09-05 18:52:44 | 48.30189 | -117.46558 | 329° | 18km/h | 30715m | 7.9m/s | -42.1°C | 0% | 0hPa | 0V | 00:00:00 | 00:00:00 | 00:00:00 | |
| WB7NNF | 2026-09-05 18:52:23 | 48.30102 | -117.46582 | 32° | 42km/h | 30594m | 8.7m/s | -42.3°C | 0% | 0hPa | 0V | 00:00:00 | 00:00:00 | 00:00:00 | |
| WB7NNF | 2026-09-05 18:52:01 | 48.29970 | -117.46564 | 283° | 35km/h | 30471m | 2.8m/s | -42.9°C | 0% | 0hPa | 0V | 00:00:00 | 00:00:00 | 00:00:00 | |
| WB7NNF | 2026-09-05 18:51:40 | 48.29883 | -117.46573 | 43° | 26km/h | 30351m | 0.0m/s | -44.2°C | 0% | 0hPa | 0V | 00:00:00 | 00:00:00 | 00:00:00 | |
| WB7NNF | 2026-09-05 18:51:18 | 48.29846 | -117.46525 | 327° | 18km/h | 30229m | 4.4m/s | -45.1°C | 0% | 0hPa | 0V | 00:00:00 | 00:00:00 | 00:00:00 | |
| WB7NNF | 2026-09-05 18:50:57 | 48.29756 | -117.46506 | 343° | 27km/h | 30100m | 7.2m/s | -45.9°C | 0% | 0hPa | 0V | 00:00:00 | 00:00:00 | 00:00:00 | |
| WB7NNF | 2026-09-05 18:50:37 | 48.29641 | -117.46380 | 342° | 26km/h | 29970m | 6.3m/s | -46.2°C | 0% | 0hPa | 0V | 00:00:00 | 00:00:00 | 00:00:00 | |
| WB7NNF | 2026-09-05 18:50:16 | 48.29558 | -117.46258 | 300° | 33km/h | 29853m | 8.8m/s | -46.6°C | 0% | 0hPa | 0V | 00:00:00 | 00:00:00 | 00:00:00 | |
| WB7NNF | 2026-09-05 18:49:56 | 48.29521 | -117.46016 | 320° | 15km/h | 29722m | 8.5m/s | -46.9°C | 0% | 0hPa | 0V | 00:00:00 | 00:00:00 | 00:00:00 | |
| WB7NNF | 2026-09-05 18:49:35 | 48.29529 | -117.45878 | 251° | 47km/h | 29599m | 7.0m/s | -46.7°C | 0% | 0hPa | 0V | 00:00:00 | 00:00:00 | 00:00:00 | |
| WB7NNF | 2026-09-05 18:49:15 | 48.29556 | -117.45772 | 5° | 22km/h | 29472m | 1.6m/s | -46.8°C | 0% | 0hPa | 0V | 00:00:00 | 00:00:00 | 00:00:00 | |
| WB7NNF | 2026-09-05 18:48:53 | 48.29534 | -117.45672 | 272° | 26km/h | 29342m | 5.7m/s | -47.0°C | 0% | 0hPa | 0V | 00:00:00 | 00:00:00 | 00:00:00 | |
| WB7NNF | 2026-09-05 18:48:32 | 48.29488 | -117.45586 | 259° | 46km/h | 29209m | 6.0m/s | -47.3°C | 0% | 0hPa | 0V | 00:00:00 | 00:00:00 | 00:00:00 | |
| WB7NNF | 2026-09-05 18:48:11 | 48.29442 | -117.45419 | 352° | 27km/h | 29090m | 4.0m/s | -47.4°C | 0% | 0hPa | 0V | 00:00:00 | 00:00:00 | 00:00:00 | |
| WB7NNF | 2026-09-05 18:47:51 | 48.29443 | -117.45253 | 253° | 40km/h | 28961m | 3.7m/s | -47.6°C | 0% | 0hPa | 0V | 00:00:00 | 00:00:00 | 00:00:00 | |
| WB7NNF | 2026-09-05 18:47:30 | 48.29437 | -117.45102 | 218° | 4km/h | 28844m | 4.8m/s | -48.3°C | 0% | 0hPa | 0V | 00:00:00 | 00:00:00 | 00:00:00 | |
| WB7NNF | 2026-09-05 18:47:10 | 48.29451 | -117.44970 | 341° | 26km/h | 28721m | 8.3m/s | -48.4°C | 0% | 0hPa | 0V | 00:00:00 | 00:00:00 | 00:00:00 | |
| WB7NNF | 2026-09-05 18:46:49 | 48.29452 | -117.44902 | 218° | 24km/h | 28602m | 7.3m/s | -48.6°C | 0% | 0hPa | 0V | 00:00:00 | 00:00:00 | 00:00:00 | |
| WB7NNF | 2026-09-05 18:46:29 | 48.29532 | -117.44871 | 185° | 24km/h | 28477m | 8.6m/s | -48.9°C | 0% | 0hPa | 0V | 00:00:00 | 00:00:00 | 00:00:00 | |
| WB7NNF | 2026-09-05 18:46:08 | 48.29663 | -117.44878 | 215° | 18km/h | 28353m | 8.8m/s | -48.9°C | 0% | 0hPa | 0V | 00:00:00 | 00:00:00 | 00:00:00 | |
| WB7NNF | 2026-09-05 18:45:48 | 48.29704 | -117.44823 | 163° | 26km/h | 28221m | 4.5m/s | -49.2°C | 0% | 0hPa | 0V | 00:00:00 | 00:00:00 | 00:00:00 | |
| WB7NNF | 2026-09-05 18:45:27 | 48.29730 | -117.44669 | 237° | 16km/h | 28096m | 6.5m/s | -49.4°C | 0% | 0hPa | 0V | 00:00:00 | 00:00:00 | 00:00:00 | |
| WB7NNF | 2026-09-05 18:45:06 | 48.29785 | -117.44498 | 179° | 27km/h | 27956m | 6.4m/s | -49.0°C | 0% | 0hPa | 0V | 00:00:00 | 00:00:00 | 00:00:00 | |
| WB7NNF | 2026-09-05 18:44:46 | 48.29861 | -117.44425 | 254° | 42km/h | 27839m | 6.0m/s | -49.1°C | 0% | 0hPa | 0V | 00:00:00 | 00:00:00 | 00:00:00 | |
| WB7NNF | 2026-09-05 18:44:25 | 48.29921 | -117.44366 | 221° | 26km/h | 27725m | 4.3m/s | -49.1°C | 0% | 0hPa | 0V | 00:00:00 | 00:00:00 | 00:00:00 | |
| WB7NNF | 2026-09-05 18:44:05 | 48.29967 | -117.44326 | 108° | 38km/h | 27600m | 4.6m/s | -49.2°C | 0% | 0hPa | 0V | 00:00:00 | 00:00:00 | 00:00:00 | |
| WB7NNF | 2026-09-05 18:43:43 | 48.30026 | -117.44350 | 120° | 47km/h | 27481m | 6.2m/s | -49.5°C | 0% | 0hPa | 0V | 00:00:00 | 00:00:00 | 00:00:00 | |
| WB7NNF | 2026-09-05 18:43:22 | 48.30065 | -117.44412 | 146° | 7km/h | 27364m | 3.2m/s | -49.2°C | 0% | 0hPa | 0V | 00:00:00 | 00:00:00 | 00:00:00 | |
| WB7NNF | 2026-09-05 18:43:01 | 48.30051 | -117.44508 | 21° | 22km/h | 27240m | 5.1m/s | -49.4°C | 0% | 0hPa | 0V | 00:00:00 | 00:00:00 | 00:00:00 | |
| WB7NNF | 2026-09-05 18:42:41 | 48.29996 | -117.44566 | 355° | 20km/h | 27124m | 5.3m/s | -49.8°C | 0% | 0hPa | 0V | 00:00:00 | 00:00:00 | 00:00:00 | |
| WB7NNF | 2026-09-05 18:42:20 | 48.29932 | -117.44561 | 309° | 46km/h | 27006m | 4.6m/s | -49.8°C | 0% | 0hPa | 0V | 00:00:00 | 00:00:00 | 00:00:00 | |
| WB7NNF | 2026-09-05 18:42:00 | 48.29885 | -117.44466 | 336° | 9km/h | 26890m | 6.6m/s | -49.9°C | 0% | 0hPa | 0V | 00:00:00 | 00:00:00 | 00:00:00 | |
| WB7NNF | 2026-09-05 18:41:39 | 48.29861 | -117.44326 | 269° | 20km/h | 26776m | 8.4m/s | -50.5°C | 0% | 0hPa | 0V | 00:00:00 | 00:00:00 | 00:00:00 | |
| WB7NNF | 2026-09-05 18:41:19 | 48.29852 | -117.44231 | 248° | 16km/h | 26654m | 2.7m/s | -50.1°C | 0% | 0hPa | 0V | 00:00:00 | 00:00:00 | 00:00:00 | |
| WB7NNF | 2026-09-05 18:40:58 | 48.29886 | -117.44186 | 130° | 16km/h | 26536m | 6.1m/s | -49.3°C | 0% | 0hPa | 0V | 00:00:00 | 00:00:00 | 00:00:00 | |
| WB7NNF | 2026-09-05 18:40:38 | 48.29907 | -117.44178 | 172° | 40km/h | 26412m | 4.6m/s | -48.7°C | 0% | 0hPa | 0V | 00:00:00 | 00:00:00 | 00:00:00 | |
| WB7NNF | 2026-09-05 18:40:16 | 48.29952 | -117.44156 | 274° | 20km/h | 26294m | 6.0m/s | -48.3°C | 0% | 0hPa | 0V | 00:00:00 | 00:00:00 | 00:00:00 | |
| WB7NNF | 2026-09-05 18:39:55 | 48.29985 | -117.44127 | 102° | 5km/h | 26179m | 8.2m/s | -48.5°C | 0% | 0hPa | 0V | 00:00:00 | 00:00:00 | 00:00:00 | |
| WB7NNF | 2026-09-05 18:39:34 | 48.29984 | -117.44184 | 32° | 31km/h | 26062m | 6.1m/s | -49.3°C | 0% | 0hPa | 0V | 00:00:00 | 00:00:00 | 00:00:00 | |
| WB7NNF | 2026-09-05 18:39:14 | 48.29884 | -117.44238 | 12° | 38km/h | 25948m | 6.2m/s | -50.3°C | 0% | 0hPa | 0V | 00:00:00 | 00:00:00 | 00:00:00 | |
| WB7NNF | 2026-09-05 18:38:53 | 48.29793 | -117.44224 | 4° | 44km/h | 25841m | 3.5m/s | -50.7°C | 0% | 0hPa | 0V | 00:00:00 | 00:00:00 | 00:00:00 | |
| WB7NNF | 2026-09-05 18:38:33 | 48.29732 | -117.44147 | 328° | 22km/h | 25723m | 5.2m/s | -51.4°C | 0% | 0hPa | 0V | 00:00:00 | 00:00:00 | 00:00:00 | |
| WB7NNF | 2026-09-05 18:38:12 | 48.29637 | -117.44057 | 343° | 26km/h | 25608m | 5.4m/s | -52.0°C | 0% | 0hPa | 0V | 00:00:00 | 00:00:00 | 00:00:00 | |
| WB7NNF | 2026-09-05 18:37:52 | 48.29604 | -117.43925 | 260° | 16km/h | 25482m | 5.8m/s | -52.2°C | 0% | 0hPa | 0V | 00:00:00 | 00:00:00 | 00:00:00 | |
| WB7NNF | 2026-09-05 18:37:31 | 48.29584 | -117.43759 | 250° | 33km/h | 25354m | 7.0m/s | -53.1°C | 0% | 0hPa | 0V | 00:00:00 | 00:00:00 | 00:00:00 | |
| WB7NNF | 2026-09-05 18:37:10 | 48.29583 | -117.43634 | 239° | 27km/h | 25231m | 3.9m/s | -53.2°C | 0% | 0hPa | 0V | 00:00:00 | 00:00:00 | 00:00:00 | |
| WB7NNF | 2026-09-05 18:36:50 | 48.29534 | -117.43517 | 267° | 35km/h | 25103m | 6.2m/s | -53.2°C | 0% | 0hPa | 0V | 00:00:00 | 00:00:00 | 00:00:00 | |
| WB7NNF | 2026-09-05 18:36:29 | 48.29505 | -117.43374 | 247° | 40km/h | 24981m | 1.1m/s | -53.1°C | 0% | 0hPa | 0V | 00:00:00 | 00:00:00 | 00:00:00 | |
| WB7NNF | 2026-09-05 18:36:09 | 48.29497 | -117.43247 | 274° | 20km/h | 24857m | 6.3m/s | -52.6°C | 0% | 0hPa | 0V | 00:00:00 | 00:00:00 | 00:00:00 | |
| WB7NNF | 2026-09-05 18:35:48 | 48.29505 | -117.43143 | 277° | 26km/h | 24737m | 6.2m/s | -52.5°C | 0% | 0hPa | 0V | 00:00:00 | 00:00:00 | 00:00:00 | |
| WB7NNF | 2026-09-05 18:35:28 | 48.29519 | -117.43079 | 250° | 13km/h | 24620m | 3.2m/s | -52.6°C | 0% | 0hPa | 0V | 00:00:00 | 00:00:00 | 00:00:00 | |
| WB7NNF | 2026-09-05 18:35:07 | 48.29556 | -117.43060 | 266° | 9km/h | 24512m | 5.9m/s | -52.5°C | 0% | 0hPa | 0V | 00:00:00 | 00:00:00 | 00:00:00 | |
| WB7NNF | 2026-09-05 18:34:47 | 48.29557 | -117.42988 | 291° | 35km/h | 24398m | 5.5m/s | -52.4°C | 0% | 0hPa | 0V | 00:00:00 | 00:00:00 | 00:00:00 | |
| WB7NNF | 2026-09-05 18:34:26 | 48.29555 | -117.42909 | 271° | 27km/h | 24292m | 6.5m/s | -52.0°C | 0% | 0hPa | 0V | 00:00:00 | 00:00:00 | 00:00:00 | |
| WB7NNF | 2026-09-05 18:34:06 | 48.29577 | -117.42758 | 228° | 22km/h | 24183m | 5.1m/s | -51.8°C | 0% | 0hPa | 0V | 00:00:00 | 00:00:00 | 00:00:00 | |
| WB7NNF | 2026-09-05 18:33:43 | 48.29590 | -117.42690 | 353° | 18km/h | 24060m | 5.3m/s | -51.9°C | 0% | 0hPa | 0V | 00:00:00 | 00:00:00 | 00:00:00 | |
| WB7NNF | 2026-09-05 18:33:23 | 48.29544 | -117.42658 | 223° | 11km/h | 23945m | 4.8m/s | -52.4°C | 0% | 0hPa | 0V | 00:00:00 | 00:00:00 | 00:00:00 | |
| WB7NNF | 2026-09-05 18:33:02 | 48.29508 | -117.42650 | 275° | 31km/h | 23839m | 6.2m/s | -53.6°C | 0% | 0hPa | 0V | 00:00:00 | 00:00:00 | 00:00:00 | |
| WB7NNF | 2026-09-05 18:32:42 | 48.29456 | -117.42548 | 302° | 26km/h | 23720m | 5.4m/s | -53.8°C | 0% | 0hPa | 0V | 00:00:00 | 00:00:00 | 00:00:00 | |
| WB7NNF | 2026-09-05 18:32:21 | 48.29425 | -117.42410 | 250° | 31km/h | 23607m | 6.7m/s | -54.1°C | 0% | 0hPa | 0V | 00:00:00 | 00:00:00 | 00:00:00 | |
| WB7NNF | 2026-09-05 18:32:01 | 48.29429 | -117.42242 | 283° | 15km/h | 23487m | 5.0m/s | -53.7°C | 0% | 0hPa | 0V | 00:00:00 | 00:00:00 | 00:00:00 | |
| WB7NNF | 2026-09-05 18:31:40 | 48.29437 | -117.42140 | 297° | 33km/h | 23369m | 6.3m/s | -53.4°C | 0% | 0hPa | 0V | 00:00:00 | 00:00:00 | 00:00:00 | |
| WB7NNF | 2026-09-05 18:31:20 | 48.29422 | -117.42068 | 309° | 24km/h | 23253m | 4.2m/s | -53.1°C | 0% | 0hPa | 0V | 00:00:00 | 00:00:00 | 00:00:00 | |
| WB7NNF | 2026-09-05 18:30:57 | 48.29378 | -117.42061 | 99° | 26km/h | 23123m | 4.4m/s | -53.8°C | 0% | 0hPa | 0V | 00:00:00 | 00:00:00 | 00:00:00 | |
| WB7NNF | 2026-09-05 18:30:37 | 48.29296 | -117.42027 | 4° | 13km/h | 23014m | 4.3m/s | -53.7°C | 0% | 0hPa | 0V | 00:00:00 | 00:00:00 | 00:00:00 | |
| WB7NNF | 2026-09-05 18:30:16 | 48.29261 | -117.41985 | 280° | 9km/h | 22903m | 6.6m/s | -53.7°C | 0% | 0hPa | 0V | 00:00:00 | 00:00:00 | 00:00:00 | |
| WB7NNF | 2026-09-05 18:29:56 | 48.29288 | -117.41957 | 66° | 5km/h | 22788m | 5.7m/s | -54.2°C | 0% | 0hPa | 0V | 00:00:00 | 00:00:00 | 00:00:00 | |
| WB7NNF | 2026-09-05 18:29:35 | 48.29282 | -117.41965 | 50° | 18km/h | 22675m | 4.0m/s | -54.6°C | 0% | 0hPa | 0V | 00:00:00 | 00:00:00 | 00:00:00 | |
| WB7NNF | 2026-09-05 18:29:14 | 48.29235 | -117.41958 | 4° | 35km/h | 22569m | 3.8m/s | -54.5°C | 0% | 0hPa | 0V | 00:00:00 | 00:00:00 | 00:00:00 | |
| WB7NNF | 2026-09-05 18:28:54 | 48.29116 | -117.41904 | 3° | 22km/h | 22458m | 6.1m/s | -54.3°C | 0% | 0hPa | 0V | 00:00:00 | 00:00:00 | 00:00:00 | |
| WB7NNF | 2026-09-05 18:28:33 | 48.28967 | -117.41761 | 317° | 37km/h | 22345m | 5.4m/s | -54.3°C | 0% | 0hPa | 0V | 00:00:00 | 00:00:00 | 00:00:00 | |
| WB7NNF | 2026-09-05 18:28:13 | 48.28828 | -117.41530 | 317° | 35km/h | 22231m | 6.0m/s | -54.1°C | 0% | 0hPa | 0V | 00:00:00 | 00:00:00 | 00:00:00 | |
| WB7NNF | 2026-09-05 18:27:52 | 48.28763 | -117.41319 | 263° | 29km/h | 22121m | 6.7m/s | -53.9°C | 0% | 0hPa | 0V | 00:00:00 | 00:00:00 | 00:00:00 | |
| WB7NNF | 2026-09-05 18:27:32 | 48.28748 | -117.41093 | 297° | 27km/h | 22002m | 5.0m/s | -53.8°C | 0% | 0hPa | 0V | 00:00:00 | 00:00:00 | 00:00:00 | |
| WB7NNF | 2026-09-05 18:27:11 | 48.28771 | -117.40910 | 245° | 27km/h | 21893m | 7.3m/s | -53.9°C | 0% | 0hPa | 0V | 00:00:00 | 00:00:00 | 00:00:00 | |
| WB7NNF | 2026-09-05 18:26:51 | 48.28839 | -117.40720 | 190° | 26km/h | 21778m | 5.5m/s | -54.4°C | 0% | 0hPa | 0V | 00:00:00 | 00:00:00 | 00:00:00 | |
| WB7NNF | 2026-09-05 18:26:30 | 48.28930 | -117.40626 | 213° | 26km/h | 21667m | 3.8m/s | -54.5°C | 0% | 0hPa | 0V | 00:00:00 | 00:00:00 | 00:00:00 | |
| WB7NNF | 2026-09-05 18:26:10 | 48.29053 | -117.40620 | 142° | 37km/h | 21552m | 5.1m/s | -54.2°C | 0% | 0hPa | 0V | 00:00:00 | 00:00:00 | 00:00:00 | |
| WB7NNF | 2026-09-05 18:25:49 | 48.29158 | -117.40720 | 139° | 24km/h | 21446m | 4.8m/s | -54.1°C | 0% | 0hPa | 0V | 00:00:00 | 00:00:00 | 00:00:00 | |
| WB7NNF | 2026-09-05 18:25:29 | 48.29196 | -117.40849 | 42° | 11km/h | 21334m | 4.6m/s | -53.5°C | 0% | 0hPa | 0V | 00:00:00 | 00:00:00 | 00:00:00 | |
| WB7NNF | 2026-09-05 18:25:08 | 48.29175 | -117.40964 | 309° | 15km/h | 21225m | 7.9m/s | -53.3°C | 0% | 0hPa | 0V | 00:00:00 | 00:00:00 | 00:00:00 | |
| WB7NNF | 2026-09-05 18:24:48 | 48.29090 | -117.41022 | 327° | 24km/h | 21112m | 5.5m/s | -53.9°C | 0% | 0hPa | 0V | 00:00:00 | 00:00:00 | 00:00:00 | |
| WB7NNF | 2026-09-05 18:24:06 | 48.28805 | -117.40867 | 321° | 46km/h | 20891m | 5.5m/s | -55.7°C | 0% | 0hPa | 0V | 00:00:00 | 00:00:00 | 00:00:00 | |
| WB7NNF | 2026-09-05 18:23:46 | 48.28686 | -117.40682 | 328° | 31km/h | 20781m | 5.8m/s | -55.3°C | 0% | 0hPa | 0V | 00:00:00 | 00:00:00 | 00:00:00 | |
| WB7NNF | 2026-09-05 18:23:25 | 48.28591 | -117.40523 | 316° | 29km/h | 20675m | 5.3m/s | -54.6°C | 0% | 0hPa | 0V | 00:00:00 | 00:00:00 | 00:00:00 | |
| WB7NNF | 2026-09-05 18:23:05 | 48.28482 | -117.40391 | 342° | 38km/h | 20567m | 4.5m/s | -53.9°C | 0% | 0hPa | 0V | 00:00:00 | 00:00:00 | 00:00:00 | |
| WB7NNF | 2026-09-05 18:22:44 | 48.28393 | -117.40355 | 337° | 15km/h | 20460m | 5.7m/s | -54.7°C | 0% | 0hPa | 0V | 00:00:00 | 00:00:00 | 00:00:00 | |
| WB7NNF | 2026-09-05 18:22:24 | 48.28333 | -117.40267 | 311° | 24km/h | 20345m | 5.4m/s | -54.6°C | 0% | 0hPa | 0V | 00:00:00 | 00:00:00 | 00:00:00 | |
| WB7NNF | 2026-09-05 18:22:03 | 48.28297 | -117.40137 | 269° | 18km/h | 20239m | 5.6m/s | -54.1°C | 0% | 0hPa | 0V | 00:00:00 | 00:00:00 | 00:00:00 | |
| WB7NNF | 2026-09-05 18:21:43 | 48.28263 | -117.40042 | 341° | 13km/h | 20128m | 4.8m/s | -54.2°C | 0% | 0hPa | 0V | 00:00:00 | 00:00:00 | 00:00:00 | |
| WB7NNF | 2026-09-05 18:21:22 | 48.28239 | -117.39981 | 339° | 4km/h | 20026m | 4.0m/s | -54.0°C | 0% | 0hPa | 0V | 00:00:00 | 00:00:00 | 00:00:00 | |
| WB7NNF | 2026-09-05 18:20:41 | 48.28101 | -117.39908 | 337° | 15km/h | 19807m | 6.8m/s | -53.4°C | 0% | 0hPa | 0V | 00:00:00 | 00:00:00 | 00:00:00 | |
| WB7NNF | 2026-09-05 18:20:20 | 48.28032 | -117.39923 | 39° | 22km/h | 19691m | 5.6m/s | -53.1°C | 0% | 0hPa | 0V | 00:00:00 | 00:00:00 | 00:00:00 | |
| WB7NNF | 2026-09-05 18:19:58 | 48.27954 | -117.39963 | 341° | 13km/h | 19585m | 4.5m/s | -52.9°C | 0% | 0hPa | 0V | 00:00:00 | 00:00:00 | 00:00:00 | |
| WB7NNF | 2026-09-05 18:19:36 | 48.27873 | -117.40001 | 359° | 18km/h | 19474m | 5.3m/s | -53.1°C | 0% | 0hPa | 0V | 00:00:00 | 00:00:00 | 00:00:00 | |
| WB7NNF | 2026-09-05 18:19:15 | 48.27781 | -117.40025 | 18° | 22km/h | 19368m | 6.6m/s | -52.9°C | 0% | 0hPa | 0V | 00:00:00 | 00:00:00 | 00:00:00 | |
| WB7NNF | 2026-09-05 18:18:53 | 48.27668 | -117.40031 | 12° | 22km/h | 19262m | 5.1m/s | -52.9°C | 0% | 0hPa | 0V | 00:00:00 | 00:00:00 | 00:00:00 | |
| WB7NNF | 2026-09-05 18:18:32 | 48.27535 | -117.39983 | 346° | 35km/h | 19166m | 5.5m/s | -53.1°C | 0% | 0hPa | 0V | 00:00:00 | 00:00:00 | 00:00:00 | |
| WB7NNF | 2026-09-05 18:18:12 | 48.27392 | -117.39950 | 332° | 29km/h | 19066m | 5.2m/s | -53.3°C | 0% | 0hPa | 0V | 00:00:00 | 00:00:00 | 00:00:00 | |
| WB7NNF | 2026-09-05 18:17:51 | 48.27256 | -117.39880 | 351° | 29km/h | 18972m | 6.1m/s | -53.2°C | 0% | 0hPa | 0V | 00:00:00 | 00:00:00 | 00:00:00 | |
| WB7NNF | 2026-09-05 18:17:31 | 48.27130 | -117.39830 | 341° | 15km/h | 18870m | 5.4m/s | -52.4°C | 0% | 0hPa | 0V | 00:00:00 | 00:00:00 | 00:00:00 | |
| WB7NNF | 2026-09-05 18:17:10 | 48.27025 | -117.39799 | 336° | 20km/h | 18773m | 5.7m/s | -52.3°C | 0% | 0hPa | 0V | 00:00:00 | 00:00:00 | 00:00:00 | |
| WB7NNF | 2026-09-05 18:16:50 | 48.26894 | -117.39796 | 360° | 35km/h | 18667m | 5.8m/s | -54.6°C | 0% | 0hPa | 0V | 00:00:00 | 00:00:00 | 00:00:00 | |
| WB7NNF | 2026-09-05 18:16:29 | 48.26690 | -117.39736 | 334° | 44km/h | 18564m | 5.9m/s | -54.9°C | 0% | 0hPa | 0V | 00:00:00 | 00:00:00 | 00:00:00 | |
| WB7NNF | 2026-09-05 18:16:09 | 48.26486 | -117.39615 | 340° | 51km/h | 18456m | 5.2m/s | -54.6°C | 0% | 0hPa | 0V | 00:00:00 | 00:00:00 | 00:00:00 | |
| WB7NNF | 2026-09-05 18:15:48 | 48.26329 | -117.39473 | 321° | 24km/h | 18352m | 5.4m/s | -53.9°C | 0% | 0hPa | 0V | 00:00:00 | 00:00:00 | 00:00:00 | |
| WB7NNF | 2026-09-05 18:15:28 | 48.26199 | -117.39333 | 322° | 26km/h | 18242m | 6.2m/s | -53.1°C | 0% | 0hPa | 0V | 00:00:00 | 00:00:00 | 00:00:00 | |
| WB7NNF | 2026-09-05 18:15:07 | 48.26094 | -117.39195 | 317° | 38km/h | 18136m | 6.1m/s | -52.7°C | 0% | 0hPa | 0V | 00:00:00 | 00:00:00 | 00:00:00 | |
| WB7NNF | 2026-09-05 18:14:47 | 48.26008 | -117.38994 | 286° | 35km/h | 18028m | 5.5m/s | -52.2°C | 0% | 0hPa | 0V | 00:00:00 | 00:00:00 | 00:00:00 | |
| WB7NNF | 2026-09-05 18:14:26 | 48.25954 | -117.38822 | 310° | 24km/h | 17916m | 5.6m/s | -51.6°C | 0% | 0hPa | 0V | 00:00:00 | 00:00:00 | 00:00:00 | |
| WB7NNF | 2026-09-05 18:14:05 | 48.25898 | -117.38708 | 338° | 29km/h | 17817m | 5.5m/s | -51.2°C | 0% | 0hPa | 0V | 00:00:00 | 00:00:00 | 00:00:00 | |
| WB7NNF | 2026-09-05 18:13:45 | 48.25821 | -117.38693 | 51° | 11km/h | 17709m | 4.5m/s | -50.5°C | 0% | 0hPa | 0V | 00:00:00 | 00:00:00 | 00:00:00 | |
| WB7NNF | 2026-09-05 18:13:24 | 48.25728 | -117.38735 | 14° | 26km/h | 17601m | 4.9m/s | -50.5°C | 0% | 0hPa | 0V | 00:00:00 | 00:00:00 | 00:00:00 | |
| WB7NNF | 2026-09-05 18:13:04 | 48.25571 | -117.38818 | 7° | 42km/h | 17498m | 4.8m/s | -51.0°C | 0% | 0hPa | 0V | 00:00:00 | 00:00:00 | 00:00:00 | |
| WB7NNF | 2026-09-05 18:12:43 | 48.25395 | -117.38873 | 21° | 31km/h | 17401m | 4.3m/s | -50.6°C | 0% | 0hPa | 0V | 00:00:00 | 00:00:00 | 00:00:00 | |
| WB7NNF | 2026-09-05 18:12:23 | 48.25240 | -117.38889 | 9° | 33km/h | 17299m | 3.6m/s | -50.1°C | 0% | 0hPa | 0V | 00:00:00 | 00:00:00 | 00:00:00 | |
| WB7NNF | 2026-09-05 18:12:02 | 48.25092 | -117.38882 | 11° | 33km/h | 17199m | 3.6m/s | -50.4°C | 0% | 0hPa | 0V | 00:00:00 | 00:00:00 | 00:00:00 | |
| WB7NNF | 2026-09-05 18:11:42 | 48.24904 | -117.38831 | 332° | 33km/h | 17102m | 5.2m/s | -51.6°C | 0% | 0hPa | 0V | 00:00:00 | 00:00:00 | 00:00:00 | |
| WB7NNF | 2026-09-05 18:11:21 | 48.24784 | -117.38808 | 357° | 16km/h | 17004m | 4.6m/s | -51.6°C | 0% | 0hPa | 0V | 00:00:00 | 00:00:00 | 00:00:00 | |
| WB7NNF | 2026-09-05 18:11:01 | 48.24682 | -117.38829 | 51° | 18km/h | 16908m | 4.9m/s | -51.7°C | 0% | 0hPa | 0V | 00:00:00 | 00:00:00 | 00:00:00 | |
| WB7NNF | 2026-09-05 18:10:40 | 48.24570 | -117.38894 | 3° | 31km/h | 16814m | 5.6m/s | -51.8°C | 0% | 0hPa | 0V | 00:00:00 | 00:00:00 | 00:00:00 | |
| WB7NNF | 2026-09-05 18:10:20 | 48.24390 | -117.38988 | 20° | 37km/h | 16719m | 5.4m/s | -51.5°C | 0% | 0hPa | 0V | 00:00:00 | 00:00:00 | 00:00:00 | |
| WB7NNF | 2026-09-05 18:09:59 | 48.24175 | -117.39120 | 20° | 47km/h | 16622m | 4.8m/s | -51.0°C | 0% | 0hPa | 0V | 00:00:00 | 00:00:00 | 00:00:00 | |
| WB7NNF | 2026-09-05 18:09:39 | 48.23902 | -117.39270 | 32° | 57km/h | 16523m | 2.9m/s | -51.2°C | 0% | 0hPa | 0V | 00:00:00 | 00:00:00 | 00:00:00 | |
| WB7NNF | 2026-09-05 18:09:18 | 48.23600 | -117.39393 | 5° | 55km/h | 16420m | 5.3m/s | -51.2°C | 0% | 0hPa | 0V | 00:00:00 | 00:00:00 | 00:00:00 | |
| WB7NNF | 2026-09-05 18:08:57 | 48.23333 | -117.39479 | 21° | 57km/h | 16325m | 5.3m/s | -51.7°C | 0% | 0hPa | 0V | 00:00:00 | 00:00:00 | 00:00:00 | |
| WB7NNF | 2026-09-05 18:08:37 | 48.23074 | -117.39598 | 18° | 57km/h | 16223m | 6.2m/s | -51.2°C | 0% | 0hPa | 0V | 00:00:00 | 00:00:00 | 00:00:00 | |
| WB7NNF | 2026-09-05 18:08:16 | 48.22843 | -117.39747 | 37° | 55km/h | 16125m | 5.6m/s | -51.4°C | 0% | 0hPa | 0V | 00:00:00 | 00:00:00 | 00:00:00 | |
| WB7NNF | 2026-09-05 18:07:56 | 48.22578 | -117.39938 | 20° | 51km/h | 16029m | 5.5m/s | -51.6°C | 0% | 0hPa | 0V | 00:00:00 | 00:00:00 | 00:00:00 | |
| WB7NNF | 2026-09-05 18:07:35 | 48.22282 | -117.40079 | 24° | 57km/h | 15934m | 4.0m/s | -51.7°C | 0% | 0hPa | 0V | 00:00:00 | 00:00:00 | 00:00:00 | |
| WB7NNF | 2026-09-05 18:07:15 | 48.21981 | -117.40146 | 11° | 57km/h | 15835m | 3.8m/s | -52.1°C | 0% | 0hPa | 0V | 00:00:00 | 00:00:00 | 00:00:00 | |
| WB7NNF | 2026-09-05 18:06:54 | 48.21706 | -117.40248 | 19° | 64km/h | 15742m | 3.4m/s | -52.6°C | 0% | 0hPa | 0V | 00:00:00 | 00:00:00 | 00:00:00 | |
| WB7NNF | 2026-09-05 18:06:34 | 48.21396 | -117.40434 | 26° | 75km/h | 15638m | 4.8m/s | -52.2°C | 0% | 0hPa | 0V | 00:00:00 | 00:00:00 | 00:00:00 | |
| WB7NNF | 2026-09-05 18:06:13 | 48.21040 | -117.40642 | 13° | 69km/h | 15538m | 5.1m/s | -51.9°C | 0% | 0hPa | 0V | 00:00:00 | 00:00:00 | 00:00:00 | |
| WB7NNF | 2026-09-05 18:05:53 | 48.20595 | -117.40811 | 16° | 95km/h | 15436m | 4.3m/s | -51.9°C | 0% | 0hPa | 0V | 00:00:00 | 00:00:00 | 00:00:00 | |
| WB7NNF | 2026-09-05 18:05:32 | 48.20155 | -117.40920 | 16° | 88km/h | 15342m | 4.1m/s | -51.3°C | 0% | 0hPa | 0V | 00:00:00 | 00:00:00 | 00:00:00 | |
| WB7NNF | 2026-09-05 18:05:12 | 48.19716 | -117.40997 | 6° | 82km/h | 15244m | 3.7m/s | -51.0°C | 0% | 0hPa | 0V | 00:00:00 | 00:00:00 | 00:00:00 | |
| WB7NNF | 2026-09-05 18:04:51 | 48.19318 | -117.41015 | 2° | 91km/h | 15152m | 3.5m/s | -51.3°C | 0% | 0hPa | 0V | 00:00:00 | 00:00:00 | 00:00:00 | |
| WB7NNF | 2026-09-05 18:04:31 | 48.18884 | -117.40931 | 347° | 86km/h | 15054m | 5.0m/s | -50.9°C | 0% | 0hPa | 0V | 00:00:00 | 00:00:00 | 00:00:00 | |
| WB7NNF | 2026-09-05 18:04:10 | 48.18459 | -117.40778 | 345° | 86km/h | 14958m | 3.6m/s | -50.4°C | 0% | 0hPa | 0V | 00:00:00 | 00:00:00 | 00:00:00 | |
| WB7NNF | 2026-09-05 18:03:49 | 48.18090 | -117.40637 | 348° | 78km/h | 14863m | 3.1m/s | -49.9°C | 0% | 0hPa | 0V | 00:00:00 | 00:00:00 | 00:00:00 | |
| WB7NNF | 2026-09-05 18:03:29 | 48.17743 | -117.40466 | 345° | 69km/h | 14765m | 3.7m/s | -50.0°C | 0% | 0hPa | 0V | 00:00:00 | 00:00:00 | 00:00:00 | |
| WB7NNF | 2026-09-05 18:03:08 | 48.17462 | -117.40298 | 336° | 62km/h | 14669m | 5.3m/s | -49.4°C | 0% | 0hPa | 0V | 00:00:00 | 00:00:00 | 00:00:00 | |
| WB7NNF | 2026-09-05 18:02:48 | 48.17193 | -117.40140 | 344° | 60km/h | 14569m | 4.3m/s | -49.1°C | 0% | 0hPa | 0V | 00:00:00 | 00:00:00 | 00:00:00 | |
| WB7NNF | 2026-09-05 18:02:27 | 48.16964 | -117.40032 | 331° | 42km/h | 14472m | 4.3m/s | -48.5°C | 0% | 0hPa | 0V | 00:00:00 | 00:00:00 | 00:00:00 | |
| WB7NNF | 2026-09-05 18:02:07 | 48.16763 | -117.39930 | 344° | 47km/h | 14376m | 5.2m/s | -48.0°C | 0% | 0hPa | 0V | 00:00:00 | 00:00:00 | 00:00:00 | |
| WB7NNF | 2026-09-05 18:01:46 | 48.16606 | -117.39876 | 10° | 20km/h | 14287m | 2.8m/s | -47.9°C | 0% | 0hPa | 0V | 00:00:00 | 00:00:00 | 00:00:00 | |
| WB7NNF | 2026-09-05 18:01:26 | 48.16420 | -117.39876 | 13° | 44km/h | 14183m | 4.8m/s | -47.8°C | 0% | 0hPa | 0V | 00:00:00 | 00:00:00 | 00:00:00 | |
| WB7NNF | 2026-09-05 18:01:05 | 48.16224 | -117.39878 | 358° | 40km/h | 14092m | 4.8m/s | -47.9°C | 0% | 0hPa | 0V | 00:00:00 | 00:00:00 | 00:00:00 | |
| WB7NNF | 2026-09-05 18:00:45 | 48.15982 | -117.39923 | 13° | 51km/h | 13997m | 4.3m/s | -48.0°C | 0% | 0hPa | 0V | 00:00:00 | 00:00:00 | 00:00:00 | |
| WB7NNF | 2026-09-05 18:00:24 | 48.15729 | -117.40021 | 29° | 58km/h | 13910m | 4.9m/s | -47.7°C | 0% | 0hPa | 0V | 00:00:00 | 00:00:00 | 00:00:00 | |
| WB7NNF | 2026-09-05 18:00:04 | 48.15437 | -117.40169 | 19° | 58km/h | 13819m | 3.5m/s | -48.2°C | 0% | 0hPa | 0V | 00:00:00 | 00:00:00 | 00:00:00 | |
| WB7NNF | 2026-09-05 17:59:43 | 48.15131 | -117.40325 | 9° | 60km/h | 13725m | 4.8m/s | -47.5°C | 0% | 0hPa | 0V | 00:00:00 | 00:00:00 | 00:00:00 | |
| WB7NNF | 2026-09-05 17:59:23 | 48.14763 | -117.40504 | 20° | 75km/h | 13623m | 4.9m/s | -46.9°C | 0% | 0hPa | 0V | 00:00:00 | 00:00:00 | 00:00:00 | |
| WB7NNF | 2026-09-05 17:59:02 | 48.14373 | -117.40675 | 19° | 80km/h | 13529m | 5.2m/s | -46.6°C | 0% | 0hPa | 0V | 00:00:00 | 00:00:00 | 00:00:00 | |
| WB7NNF | 2026-09-05 17:58:42 | 48.13906 | -117.40855 | 14° | 86km/h | 13429m | 4.2m/s | -46.9°C | 0% | 0hPa | 0V | 00:00:00 | 00:00:00 | 00:00:00 | |
| WB7NNF | 2026-09-05 17:58:21 | 48.13432 | -117.41014 | 15° | 77km/h | 13330m | 3.9m/s | -46.7°C | 0% | 0hPa | 0V | 00:00:00 | 00:00:00 | 00:00:00 | |
| WB7NNF | 2026-09-05 17:58:00 | 48.13003 | -117.41165 | 13° | 89km/h | 13235m | 5.3m/s | -46.1°C | 0% | 0hPa | 0V | 00:00:00 | 00:00:00 | 00:00:00 | |
| WB7NNF | 2026-09-05 17:57:40 | 48.12592 | -117.41312 | 14° | 71km/h | 13132m | 4.5m/s | -46.0°C | 0% | 0hPa | 0V | 00:00:00 | 00:00:00 | 00:00:00 | |
| WB7NNF | 2026-09-05 17:57:19 | 48.12214 | -117.41428 | 6° | 78km/h | 13039m | 2.9m/s | -45.7°C | 0% | 0hPa | 0V | 00:00:00 | 00:00:00 | 00:00:00 | |
| WB7NNF | 2026-09-05 17:56:59 | 48.11856 | -117.41585 | 20° | 66km/h | 12942m | 5.4m/s | -45.0°C | 0% | 0hPa | 0V | 00:00:00 | 00:00:00 | 00:00:00 | |
| WB7NNF | 2026-09-05 17:56:38 | 48.11519 | -117.41740 | 15° | 80km/h | 12848m | 5.8m/s | -44.5°C | 0% | 0hPa | 0V | 00:00:00 | 00:00:00 | 00:00:00 | |
| WB7NNF | 2026-09-05 17:56:18 | 48.11131 | -117.41880 | 12° | 75km/h | 12756m | 5.4m/s | -44.4°C | 0% | 0hPa | 0V | 00:00:00 | 00:00:00 | 00:00:00 | |
| WB7NNF | 2026-09-05 17:55:57 | 48.10777 | -117.42034 | 18° | 77km/h | 12668m | 4.9m/s | -44.4°C | 0% | 0hPa | 0V | 00:00:00 | 00:00:00 | 00:00:00 | |
| WB7NNF | 2026-09-05 17:55:37 | 48.10395 | -117.42231 | 18° | 75km/h | 12580m | 4.9m/s | -44.3°C | 0% | 0hPa | 0V | 00:00:00 | 00:00:00 | 00:00:00 | |
| WB7NNF | 2026-09-05 17:55:16 | 48.10053 | -117.42412 | 24° | 68km/h | 12494m | 4.5m/s | -43.9°C | 0% | 0hPa | 0V | 00:00:00 | 00:00:00 | 00:00:00 | |
| WB7NNF | 2026-09-05 17:54:56 | 48.09717 | -117.42603 | 25° | 73km/h | 12402m | 4.0m/s | -43.5°C | 0% | 0hPa | 0V | 00:00:00 | 00:00:00 | 00:00:00 | |
| WB7NNF | 2026-09-05 17:54:35 | 48.09390 | -117.42773 | 20° | 62km/h | 12319m | 4.8m/s | -43.0°C | 0% | 0hPa | 0V | 00:00:00 | 00:00:00 | 00:00:00 | |
| WB7NNF | 2026-09-05 17:54:15 | 48.09048 | -117.42930 | 13° | 66km/h | 12229m | 3.4m/s | -43.9°C | 0% | 0hPa | 0V | 00:00:00 | 00:00:00 | 00:00:00 | |
| WB7NNF | 2026-09-05 17:53:54 | 48.08700 | -117.43054 | 18° | 73km/h | 12144m | 4.4m/s | -43.6°C | 0% | 0hPa | 0V | 00:00:00 | 00:00:00 | 00:00:00 | |
| WB7NNF | 2026-09-05 17:53:34 | 48.08337 | -117.43160 | 10° | 73km/h | 12049m | 5.2m/s | -43.7°C | 0% | 0hPa | 0V | 00:00:00 | 00:00:00 | 00:00:00 | |
| WB7NNF | 2026-09-05 17:53:13 | 48.07968 | -117.43295 | 14° | 82km/h | 11956m | 4.4m/s | -43.3°C | 0% | 0hPa | 0V | 00:00:00 | 00:00:00 | 00:00:00 | |
| WB7NNF | 2026-09-05 17:52:52 | 48.07590 | -117.43464 | 13° | 84km/h | 11863m | 3.9m/s | -42.9°C | 0% | 0hPa | 0V | 00:00:00 | 00:00:00 | 00:00:00 | |
| WB7NNF | 2026-09-05 17:52:32 | 48.07177 | -117.43642 | 19° | 75km/h | 11768m | 3.2m/s | -42.9°C | 0% | 0hPa | 0V | 00:00:00 | 00:00:00 | 00:00:00 | |
| WB7NNF | 2026-09-05 17:52:11 | 48.06761 | -117.43786 | 19° | 78km/h | 11681m | 3.5m/s | -43.1°C | 0% | 0hPa | 0V | 00:00:00 | 00:00:00 | 00:00:00 | |
| WB7NNF | 2026-09-05 17:51:51 | 48.06341 | -117.43954 | 5° | 78km/h | 11587m | 4.1m/s | -42.5°C | 0% | 0hPa | 0V | 00:00:00 | 00:00:00 | 00:00:00 | |
| WB7NNF | 2026-09-05 17:51:30 | 48.05967 | -117.44073 | 13° | 80km/h | 11498m | 3.8m/s | -41.9°C | 0% | 0hPa | 0V | 00:00:00 | 00:00:00 | 00:00:00 | |
| WB7NNF | 2026-09-05 17:51:10 | 48.05597 | -117.44248 | 24° | 73km/h | 11403m | 3.7m/s | -42.6°C | 0% | 0hPa | 0V | 00:00:00 | 00:00:00 | 00:00:00 | |
| WB7NNF | 2026-09-05 17:50:49 | 48.05262 | -117.44463 | 22° | 73km/h | 11314m | 3.7m/s | -42.1°C | 0% | 0hPa | 0V | 00:00:00 | 00:00:00 | 00:00:00 | |
| WB7NNF | 2026-09-05 17:50:29 | 48.04885 | -117.44718 | 23° | 86km/h | 11228m | 3.7m/s | -41.9°C | 0% | 0hPa | 0V | 00:00:00 | 00:00:00 | 00:00:00 | |
| WB7NNF | 2026-09-05 17:50:07 | 48.04471 | -117.44997 | 29° | 89km/h | 11144m | 4.6m/s | -41.6°C | 0% | 0hPa | 0V | 00:00:00 | 00:00:00 | 00:00:00 | |
| WB7NNF | 2026-09-05 17:49:46 | 48.04022 | -117.45330 | 32° | 97km/h | 11058m | 4.9m/s | -41.7°C | 0% | 0hPa | 0V | 00:00:00 | 00:00:00 | 00:00:00 | |
| WB7NNF | 2026-09-05 17:49:26 | 48.03571 | -117.45727 | 34° | 110km/h | 10972m | 5.1m/s | -41.5°C | 0% | 0hPa | 0V | 00:00:00 | 00:00:00 | 00:00:00 | |
| WB7NNF | 2026-09-05 17:49:05 | 48.03018 | -117.46186 | 32° | 113km/h | 10887m | 3.4m/s | -41.5°C | 0% | 0hPa | 0V | 00:00:00 | 00:00:00 | 00:00:00 | |
| WB7NNF | 2026-09-05 17:48:45 | 48.02464 | -117.46546 | 24° | 122km/h | 10807m | 3.2m/s | -42.5°C | 0% | 0hPa | 0V | 00:00:00 | 00:00:00 | 00:00:00 | |
| WB7NNF | 2026-09-05 17:48:24 | 48.01873 | -117.46843 | 17° | 117km/h | 10720m | 3.3m/s | -42.2°C | 0% | 0hPa | 0V | 00:00:00 | 00:00:00 | 00:00:00 | |
| WB7NNF | 2026-09-05 17:48:03 | 48.01349 | -117.47051 | 15° | 108km/h | 10636m | 3.4m/s | -42.3°C | 0% | 0hPa | 0V | 00:00:00 | 00:00:00 | 00:00:00 | |
| WB7NNF | 2026-09-05 17:47:43 | 48.00792 | -117.47214 | 13° | 100km/h | 10553m | 3.4m/s | -43.1°C | 0% | 0hPa | 0V | 00:00:00 | 00:00:00 | 00:00:00 | |
| WB7NNF | 2026-09-05 17:47:22 | 48.00285 | -117.47400 | 17° | 102km/h | 10474m | 4.2m/s | -42.6°C | 0% | 0hPa | 0V | 00:00:00 | 00:00:00 | 00:00:00 | |
| WB7NNF | 2026-09-05 17:46:41 | 47.99265 | -117.47971 | 24° | 110km/h | 10297m | 5.4m/s | -42.7°C | 0% | 0hPa | 0V | 00:00:00 | 00:00:00 | 00:00:00 | |
| WB7NNF | 2026-09-05 17:46:20 | 47.98733 | -117.48274 | 20° | 115km/h | 10207m | 4.8m/s | -42.5°C | 0% | 0hPa | 0V | 00:00:00 | 00:00:00 | 00:00:00 | |
| WB7NNF | 2026-09-05 17:46:00 | 47.98124 | -117.48616 | 25° | 135km/h | 10124m | 3.6m/s | -43.6°C | 0% | 0hPa | 0V | 00:00:00 | 00:00:00 | 00:00:00 | |
| WB7NNF | 2026-09-05 17:45:19 | 47.96853 | -117.49172 | 12° | 126km/h | 9959m | 4.8m/s | -44.6°C | 0% | 0hPa | 0V | 00:00:00 | 00:00:00 | 00:00:00 | |
| WB7NNF | 2026-09-05 17:44:58 | 47.96254 | -117.49357 | 15° | 115km/h | 9878m | 4.8m/s | -44.6°C | 0% | 0hPa | 0V | 00:00:00 | 00:00:00 | 00:00:00 | |
| WB7NNF | 2026-09-05 17:44:38 | 47.95664 | -117.49572 | 20° | 102km/h | 9793m | 4.0m/s | -44.4°C | 0% | 0hPa | 0V | 00:00:00 | 00:00:00 | 00:00:00 | |
| WB7NNF | 2026-09-05 17:44:17 | 47.95114 | -117.49820 | 24° | 120km/h | 9708m | 4.5m/s | -44.4°C | 0% | 0hPa | 0V | 00:00:00 | 00:00:00 | 00:00:00 | |
| WB7NNF | 2026-09-05 17:43:57 | 47.94536 | -117.50154 | 19° | 122km/h | 9620m | 4.8m/s | -44.5°C | 0% | 0hPa | 0V | 00:00:00 | 00:00:00 | 00:00:00 | |
| WB7NNF | 2026-09-05 17:43:36 | 47.93937 | -117.50533 | 25° | 126km/h | 9525m | 5.9m/s | -44.4°C | 0% | 0hPa | 0V | 00:00:00 | 00:00:00 | 00:00:00 | |
| WB7NNF | 2026-09-05 17:43:14 | 47.93296 | -117.50957 | 26° | 131km/h | 9441m | 3.1m/s | -44.1°C | 0% | 0hPa | 0V | 00:00:00 | 00:00:00 | 00:00:00 | |
| WB7NNF | 2026-09-05 17:42:53 | 47.92663 | -117.51395 | 24° | 131km/h | 9359m | 3.3m/s | -44.0°C | 0% | 0hPa | 0V | 00:00:00 | 00:00:00 | 00:00:00 | |
| WB7NNF | 2026-09-05 17:42:33 | 47.92023 | -117.51858 | 31° | 141km/h | 9274m | 3.9m/s | -43.7°C | 0% | 0hPa | 0V | 00:00:00 | 00:00:00 | 00:00:00 | |
| WB7NNF | 2026-09-05 17:42:12 | 47.91419 | -117.52330 | 36° | 131km/h | 9181m | 6.4m/s | -43.1°C | 0% | 0hPa | 0V | 00:00:00 | 00:00:00 | 00:00:00 | |
| WB7NNF | 2026-09-05 17:41:48 | 47.90600 | -117.52973 | 27° | 153km/h | 9060m | 4.4m/s | -42.7°C | 0% | 0hPa | 0V | 00:00:00 | 00:00:00 | 00:00:00 | |
| WB7NNF | 2026-09-05 17:41:27 | 47.89882 | -117.53486 | 28° | 161km/h | 8982m | 3.7m/s | -42.4°C | 0% | 0hPa | 0V | 00:00:00 | 00:00:00 | 00:00:00 | |
| WB7NNF | 2026-09-05 17:41:07 | 47.89132 | -117.54024 | 26° | 155km/h | 8901m | 5.6m/s | -42.3°C | 0% | 0hPa | 0V | 00:00:00 | 00:00:00 | 00:00:00 | |
| WB7NNF | 2026-09-05 17:40:46 | 47.88427 | -117.54478 | 26° | 151km/h | 8822m | 4.9m/s | -41.7°C | 0% | 0hPa | 0V | 00:00:00 | 00:00:00 | 00:00:00 | |
| WB7NNF | 2026-09-05 17:40:26 | 47.87703 | -117.54929 | 22° | 144km/h | 8738m | 4.7m/s | -41.2°C | 0% | 0hPa | 0V | 00:00:00 | 00:00:00 | 00:00:00 | |
| WB7NNF | 2026-09-05 17:40:05 | 47.87037 | -117.55297 | 17° | 133km/h | 8654m | 4.5m/s | -42.1°C | 0% | 0hPa | 0V | 00:00:00 | 00:00:00 | 00:00:00 | |
| WB7NNF | 2026-09-05 17:39:45 | 47.86362 | -117.55650 | 20° | 148km/h | 8567m | 3.3m/s | -42.0°C | 0% | 0hPa | 0V | 00:00:00 | 00:00:00 | 00:00:00 | |
| WB7NNF | 2026-09-05 17:39:24 | 47.85732 | -117.56026 | 21° | 130km/h | 8478m | 2.9m/s | -41.6°C | 0% | 0hPa | 0V | 00:00:00 | 00:00:00 | 00:00:00 | |
| WB7NNF | 2026-09-05 17:39:04 | 47.85099 | -117.56381 | 21° | 135km/h | 8390m | 3.1m/s | -40.9°C | 0% | 0hPa | 0V | 00:00:00 | 00:00:00 | 00:00:00 | |
| WB7NNF | 2026-09-05 17:38:43 | 47.84493 | -117.56710 | 19° | 126km/h | 8303m | 4.4m/s | -40.1°C | 0% | 0hPa | 0V | 00:00:00 | 00:00:00 | 00:00:00 | |
| WB7NNF | 2026-09-05 17:38:19 | 47.83752 | -117.57123 | 25° | 120km/h | 8189m | 6.6m/s | -39.1°C | 0% | 0hPa | 0V | 00:00:00 | 00:00:00 | 00:00:00 | |
| WB7NNF | 2026-09-05 17:37:58 | 47.83149 | -117.57421 | 19° | 113km/h | 8093m | 4.1m/s | -38.3°C | 0% | 0hPa | 0V | 00:00:00 | 00:00:00 | 00:00:00 | |
| WB7NNF | 2026-09-05 17:37:38 | 47.82530 | -117.57718 | 21° | 119km/h | 8003m | 3.6m/s | -37.5°C | 0% | 0hPa | 0V | 00:00:00 | 00:00:00 | 00:00:00 | |
| WB7NNF | 2026-09-05 17:37:16 | 47.81922 | -117.58026 | 21° | 113km/h | 7915m | 4.8m/s | -36.8°C | 0% | 0hPa | 0V | 00:00:00 | 00:00:00 | 00:00:00 | |
| WB7NNF | 2026-09-05 17:36:55 | 47.81314 | -117.58334 | 15° | 106km/h | 7832m | 5.2m/s | -36.2°C | 0% | 0hPa | 0V | 00:00:00 | 00:00:00 | 00:00:00 | |
| WB7NNF | 2026-09-05 17:36:34 | 47.80770 | -117.58642 | 20° | 126km/h | 7719m | 5.1m/s | -35.3°C | 0% | 0hPa | 0V | 00:00:00 | 00:00:00 | 00:00:00 | |
| WB7NNF | 2026-09-05 17:36:14 | 47.80211 | -117.58929 | 18° | 97km/h | 7611m | 5.2m/s | -34.5°C | 0% | 0hPa | 0V | 00:00:00 | 00:00:00 | 00:00:00 | |
| WB7NNF | 2026-09-05 17:35:53 | 47.79727 | -117.59150 | 17° | 104km/h | 7534m | 3.9m/s | -34.0°C | 0% | 0hPa | 0V | 00:00:00 | 00:00:00 | 00:00:00 | |
| WB7NNF | 2026-09-05 17:35:12 | 47.78706 | -117.59573 | 17° | 102km/h | 7369m | 4.4m/s | -32.7°C | 0% | 0hPa | 0V | 00:00:00 | 00:00:00 | 00:00:00 | |
| WB7NNF | 2026-09-05 17:34:52 | 47.78198 | -117.59795 | 16° | 99km/h | 7288m | 4.6m/s | -32.1°C | 0% | 0hPa | 0V | 00:00:00 | 00:00:00 | 00:00:00 | |
| WB7NNF | 2026-09-05 17:34:26 | 47.77530 | -117.60070 | 15° | 97km/h | 7174m | 4.2m/s | -31.2°C | 0% | 0hPa | 0V | 00:00:00 | 00:00:00 | 00:00:00 | |
| WB7NNF | 2026-09-05 17:34:05 | 47.77082 | -117.60241 | 16° | 91km/h | 7096m | 3.7m/s | -30.6°C | 0% | 0hPa | 0V | 00:00:00 | 00:00:00 | 00:00:00 | |
| WB7NNF | 2026-09-05 17:33:44 | 47.76621 | -117.60419 | 11° | 91km/h | 7014m | 3.3m/s | -30.0°C | 0% | 0hPa | 0V | 00:00:00 | 00:00:00 | 00:00:00 | |
| WB7NNF | 2026-09-05 17:33:24 | 47.76154 | -117.60625 | 12° | 106km/h | 6921m | 5.1m/s | -29.3°C | 0% | 0hPa | 0V | 00:00:00 | 00:00:00 | 00:00:00 | |
| WB7NNF | 2026-09-05 17:32:47 | 47.75389 | -117.60978 | 12° | 97km/h | 6720m | 6.6m/s | -28.1°C | 0% | 0hPa | 0V | 00:00:00 | 00:00:00 | 00:00:00 | |
| WB7NNF | 2026-09-05 17:32:26 | 47.74989 | -117.61159 | 29° | 88km/h | 6601m | 7.4m/s | -27.1°C | 0% | 0hPa | 0V | 00:00:00 | 00:00:00 | 00:00:00 | |
| WB7NNF | 2026-09-05 17:32:04 | 47.74622 | -117.61384 | 23° | 71km/h | 6483m | 3.7m/s | -26.4°C | 0% | 0hPa | 0V | 00:00:00 | 00:00:00 | 00:00:00 | |
| WB7NNF | 2026-09-05 17:31:43 | 47.74279 | -117.61586 | 24° | 62km/h | 6401m | 3.3m/s | -25.7°C | 0% | 0hPa | 0V | 00:00:00 | 00:00:00 | 00:00:00 | |
| WB7NNF | 2026-09-05 17:31:21 | 47.73951 | -117.61806 | 23° | 64km/h | 6320m | 4.4m/s | -25.1°C | 0% | 0hPa | 0V | 00:00:00 | 00:00:00 | 00:00:00 | |
| WB7NNF | 2026-09-05 17:31:01 | 47.73626 | -117.62026 | 21° | 80km/h | 6238m | 3.9m/s | -24.7°C | 0% | 0hPa | 0V | 00:00:00 | 00:00:00 | 00:00:00 | |
| WB7NNF | 2026-09-05 17:30:38 | 47.73286 | -117.62255 | 20° | 64km/h | 6103m | 6.7m/s | -24.5°C | 0% | 0hPa | 0V | 00:00:00 | 00:00:00 | 00:00:00 | |
| WB7NNF | 2026-09-05 17:29:55 | 47.72800 | -117.62496 | 39° | 38km/h | 5868m | 3.6m/s | -22.9°C | 0% | 0hPa | 0V | 00:00:00 | 00:00:00 | 00:00:00 | |
| WB7NNF | 2026-09-05 17:29:25 | 47.72516 | -117.62623 | 24° | 55km/h | 5713m | 5.6m/s | -21.6°C | 0% | 0hPa | 0V | 00:00:00 | 00:00:00 | 00:00:00 |